sensor_id;sensor_type;location;lat;lon;timestamp;P1;durP1;ratioP1;P2;durP2;ratioP2
13487;SDS011;6816;48.506;9.050;2023-07-13T00:00:31;1.45;;;1.30;;
13487;SDS011;6816;48.506;9.050;2023-07-13T00:03:32;1.42;;;1.33;;
13487;SDS011;6816;48.506;9.050;2023-07-13T00:06:35;2.47;;;1.40;;
13487;SDS011;6816;48.506;9.050;2023-07-13T00:09:35;1.40;;;1.30;;
13487;SDS011;6816;48.506;9.050;2023-07-13T00:12:37;1.50;;;1.40;;
13487;SDS011;6816;48.506;9.050;2023-07-13T00:15:38;2.60;;;1.35;;
13487;SDS011;6816;48.506;9.050;2023-07-13T00:18:39;2.05;;;1.55;;
13487;SDS011;6816;48.506;9.050;2023-07-13T00:21:40;2.15;;;1.15;;
13487;SDS011;6816;48.506;9.050;2023-07-13T00:24:41;3.88;;;1.50;;
13487;SDS011;6816;48.506;9.050;2023-07-13T00:27:42;1.60;;;1.30;;
13487;SDS011;6816;48.506;9.050;2023-07-13T00:30:43;1.38;;;1.27;;
13487;SDS011;6816;48.506;9.050;2023-07-13T00:33:44;1.60;;;1.30;;
13487;SDS011;6816;48.506;9.050;2023-07-13T00:36:45;1.50;;;1.25;;
13487;SDS011;6816;48.506;9.050;2023-07-13T00:39:45;1.30;;;1.10;;
13487;SDS011;6816;48.506;9.050;2023-07-13T00:42:46;1.38;;;1.20;;
13487;SDS011;6816;48.506;9.050;2023-07-13T00:48:48;1.27;;;1.15;;
13487;SDS011;6816;48.506;9.050;2023-07-13T00:51:54;1.90;;;1.17;;
13487;SDS011;6816;48.506;9.050;2023-07-13T00:54:57;1.52;;;1.42;;
13487;SDS011;6816;48.506;9.050;2023-07-13T00:57:58;2.85;;;1.60;;
13487;SDS011;6816;48.506;9.050;2023-07-13T01:00:59;1.33;;;1.17;;
13487;SDS011;6816;48.506;9.050;2023-07-13T01:03:59;3.10;;;1.20;;
13487;SDS011;6816;48.506;9.050;2023-07-13T01:07:00;1.58;;;1.48;;
13487;SDS011;6816;48.506;9.050;2023-07-13T01:10:00;1.63;;;1.40;;
13487;SDS011;6816;48.506;9.050;2023-07-13T01:13:01;1.65;;;1.25;;
13487;SDS011;6816;48.506;9.050;2023-07-13T01:16:05;1.67;;;1.27;;
13487;SDS011;6816;48.506;9.050;2023-07-13T01:19:27;1.23;;;0.90;;
13487;SDS011;6816;48.506;9.050;2023-07-13T01:22:39;2.85;;;1.20;;
13487;SDS011;6816;48.506;9.050;2023-07-13T01:25:39;1.40;;;1.30;;
13487;SDS011;6816;48.506;9.050;2023-07-13T01:28:40;1.35;;;1.20;;
13487;SDS011;6816;48.506;9.050;2023-07-13T01:31:41;1.27;;;1.17;;
13487;SDS011;6816;48.506;9.050;2023-07-13T01:34:41;1.17;;;1.08;;
13487;SDS011;6816;48.506;9.050;2023-07-13T01:37:42;1.67;;;1.13;;
13487;SDS011;6816;48.506;9.050;2023-07-13T01:40:44;1.35;;;1.10;;
13487;SDS011;6816;48.506;9.050;2023-07-13T01:43:45;2.13;;;1.25;;
13487;SDS011;6816;48.506;9.050;2023-07-13T01:46:46;2.15;;;1.17;;
13487;SDS011;6816;48.506;9.050;2023-07-13T01:49:47;1.33;;;1.20;;
13487;SDS011;6816;48.506;9.050;2023-07-13T01:52:47;1.23;;;1.10;;
13487;SDS011;6816;48.506;9.050;2023-07-13T01:55:48;2.80;;;0.95;;
13487;SDS011;6816;48.506;9.050;2023-07-13T01:58:48;1.50;;;1.20;;
13487;SDS011;6816;48.506;9.050;2023-07-13T02:01:49;2.38;;;1.50;;
13487;SDS011;6816;48.506;9.050;2023-07-13T02:04:49;3.70;;;1.50;;
13487;SDS011;6816;48.506;9.050;2023-07-13T02:07:50;1.20;;;1.00;;
13487;SDS011;6816;48.506;9.050;2023-07-13T02:10:52;2.28;;;1.17;;
13487;SDS011;6816;48.506;9.050;2023-07-13T02:13:53;2.75;;;1.38;;
13487;SDS011;6816;48.506;9.050;2023-07-13T02:16:53;1.45;;;1.35;;
13487;SDS011;6816;48.506;9.050;2023-07-13T02:19:54;1.20;;;1.10;;
13487;SDS011;6816;48.506;9.050;2023-07-13T02:22:55;1.60;;;0.93;;
13487;SDS011;6816;48.506;9.050;2023-07-13T02:25:56;2.00;;;1.20;;
13487;SDS011;6816;48.506;9.050;2023-07-13T02:28:57;2.15;;;1.35;;
13487;SDS011;6816;48.506;9.050;2023-07-13T02:31:58;2.13;;;1.17;;
13487;SDS011;6816;48.506;9.050;2023-07-13T02:34:59;1.90;;;1.13;;
13487;SDS011;6816;48.506;9.050;2023-07-13T02:38:00;2.78;;;1.30;;
13487;SDS011;6816;48.506;9.050;2023-07-13T02:41:05;1.45;;;1.20;;
13487;SDS011;6816;48.506;9.050;2023-07-13T02:44:07;1.73;;;1.20;;
13487;SDS011;6816;48.506;9.050;2023-07-13T02:47:08;3.30;;;1.20;;
13487;SDS011;6816;48.506;9.050;2023-07-13T02:50:09;2.33;;;0.98;;
13487;SDS011;6816;48.506;9.050;2023-07-13T02:53:09;1.20;;;1.10;;
13487;SDS011;6816;48.506;9.050;2023-07-13T02:56:10;1.33;;;0.93;;
13487;SDS011;6816;48.506;9.050;2023-07-13T02:59:11;1.92;;;1.17;;
13487;SDS011;6816;48.506;9.050;2023-07-13T03:02:12;1.20;;;1.10;;
13487;SDS011;6816;48.506;9.050;2023-07-13T03:05:13;1.77;;;1.08;;
13487;SDS011;6816;48.506;9.050;2023-07-13T03:08:14;1.60;;;1.27;;
13487;SDS011;6816;48.506;9.050;2023-07-13T03:11:16;2.67;;;1.67;;
13487;SDS011;6816;48.506;9.050;2023-07-13T03:14:18;1.10;;;1.00;;
13487;SDS011;6816;48.506;9.050;2023-07-13T03:17:19;1.67;;;1.23;;
13487;SDS011;6816;48.506;9.050;2023-07-13T03:20:20;1.38;;;1.15;;
13487;SDS011;6816;48.506;9.050;2023-07-13T03:23:20;1.98;;;1.10;;
13487;SDS011;6816;48.506;9.050;2023-07-13T03:26:22;2.03;;;1.20;;
13487;SDS011;6816;48.506;9.050;2023-07-13T03:29:22;2.03;;;1.00;;
13487;SDS011;6816;48.506;9.050;2023-07-13T03:32:23;1.30;;;1.10;;
13487;SDS011;6816;48.506;9.050;2023-07-13T03:35:23;1.92;;;1.30;;
13487;SDS011;6816;48.506;9.050;2023-07-13T03:38:24;2.63;;;1.20;;
13487;SDS011;6816;48.506;9.050;2023-07-13T03:41:26;1.20;;;0.88;;
13487;SDS011;6816;48.506;9.050;2023-07-13T03:44:27;1.33;;;1.20;;
13487;SDS011;6816;48.506;9.050;2023-07-13T03:47:28;2.80;;;1.27;;
13487;SDS011;6816;48.506;9.050;2023-07-13T03:50:28;1.33;;;1.20;;
13487;SDS011;6816;48.506;9.050;2023-07-13T03:53:29;1.83;;;1.38;;
13487;SDS011;6816;48.506;9.050;2023-07-13T03:56:30;1.98;;;1.33;;
13487;SDS011;6816;48.506;9.050;2023-07-13T03:59:32;2.72;;;1.60;;
13487;SDS011;6816;48.506;9.050;2023-07-13T04:02:33;3.38;;;1.63;;
13487;SDS011;6816;48.506;9.050;2023-07-13T04:05:34;2.17;;;1.35;;
13487;SDS011;6816;48.506;9.050;2023-07-13T04:08:36;2.92;;;1.30;;
13487;SDS011;6816;48.506;9.050;2023-07-13T04:11:37;2.15;;;1.33;;
13487;SDS011;6816;48.506;9.050;2023-07-13T04:14:37;1.90;;;1.17;;
13487;SDS011;6816;48.506;9.050;2023-07-13T04:17:38;1.23;;;1.13;;
13487;SDS011;6816;48.506;9.050;2023-07-13T04:20:39;1.08;;;1.00;;
13487;SDS011;6816;48.506;9.050;2023-07-13T04:23:39;1.38;;;1.15;;
13487;SDS011;6816;48.506;9.050;2023-07-13T04:26:40;3.17;;;1.25;;
13487;SDS011;6816;48.506;9.050;2023-07-13T04:29:41;2.72;;;1.52;;
13487;SDS011;6816;48.506;9.050;2023-07-13T04:32:41;2.65;;;1.83;;
13487;SDS011;6816;48.506;9.050;2023-07-13T04:35:45;1.98;;;1.38;;
13487;SDS011;6816;48.506;9.050;2023-07-13T04:38:48;2.45;;;1.25;;
13487;SDS011;6816;48.506;9.050;2023-07-13T04:41:49;4.10;;;1.30;;
13487;SDS011;6816;48.506;9.050;2023-07-13T04:44:50;3.33;;;1.40;;
13487;SDS011;6816;48.506;9.050;2023-07-13T04:47:51;2.35;;;1.65;;
13487;SDS011;6816;48.506;9.050;2023-07-13T04:50:55;2.55;;;1.40;;
13487;SDS011;6816;48.506;9.050;2023-07-13T04:53:57;2.03;;;1.50;;
13487;SDS011;6816;48.506;9.050;2023-07-13T04:56:59;2.90;;;1.20;;
13487;SDS011;6816;48.506;9.050;2023-07-13T05:00:00;1.45;;;1.35;;
13487;SDS011;6816;48.506;9.050;2023-07-13T05:03:06;2.80;;;2.00;;
13487;SDS011;6816;48.506;9.050;2023-07-13T05:06:07;3.63;;;1.45;;
13487;SDS011;6816;48.506;9.050;2023-07-13T05:09:11;2.03;;;1.20;;
13487;SDS011;6816;48.506;9.050;2023-07-13T05:12:12;1.85;;;1.25;;
13487;SDS011;6816;48.506;9.050;2023-07-13T05:15:13;2.33;;;1.23;;
13487;SDS011;6816;48.506;9.050;2023-07-13T05:18:14;3.60;;;1.70;;
13487;SDS011;6816;48.506;9.050;2023-07-13T05:21:14;2.10;;;1.30;;
13487;SDS011;6816;48.506;9.050;2023-07-13T05:24:15;1.50;;;1.40;;
13487;SDS011;6816;48.506;9.050;2023-07-13T05:27:16;2.47;;;1.38;;
13487;SDS011;6816;48.506;9.050;2023-07-13T05:30:16;2.15;;;1.63;;
13487;SDS011;6816;48.506;9.050;2023-07-13T05:33:17;1.90;;;1.20;;
13487;SDS011;6816;48.506;9.050;2023-07-13T05:36:18;2.83;;;1.42;;
13487;SDS011;6816;48.506;9.050;2023-07-13T05:39:18;2.47;;;1.50;;
13487;SDS011;6816;48.506;9.050;2023-07-13T05:42:19;1.88;;;1.60;;
13487;SDS011;6816;48.506;9.050;2023-07-13T05:45:20;3.80;;;1.55;;
13487;SDS011;6816;48.506;9.050;2023-07-13T05:48:20;2.22;;;1.52;;
13487;SDS011;6816;48.506;9.050;2023-07-13T05:51:21;2.83;;;1.60;;
13487;SDS011;6816;48.506;9.050;2023-07-13T05:54:21;1.40;;;1.30;;
13487;SDS011;6816;48.506;9.050;2023-07-13T05:57:22;2.25;;;1.80;;
13487;SDS011;6816;48.506;9.050;2023-07-13T06:00:23;4.40;;;1.40;;
13487;SDS011;6816;48.506;9.050;2023-07-13T06:03:25;2.28;;;1.17;;
13487;SDS011;6816;48.506;9.050;2023-07-13T06:06:25;1.83;;;1.40;;
13487;SDS011;6816;48.506;9.050;2023-07-13T06:09:26;2.50;;;1.40;;
13487;SDS011;6816;48.506;9.050;2023-07-13T06:12:27;2.85;;;1.52;;
13487;SDS011;6816;48.506;9.050;2023-07-13T06:15:28;1.63;;;1.52;;
13487;SDS011;6816;48.506;9.050;2023-07-13T06:18:28;4.93;;;2.10;;
13487;SDS011;6816;48.506;9.050;2023-07-13T06:21:29;2.00;;;1.90;;
13487;SDS011;6816;48.506;9.050;2023-07-13T06:24:29;2.97;;;2.22;;
13487;SDS011;6816;48.506;9.050;2023-07-13T06:27:30;1.88;;;1.50;;
13487;SDS011;6816;48.506;9.050;2023-07-13T06:30:30;2.47;;;1.65;;
13487;SDS011;6816;48.506;9.050;2023-07-13T06:33:31;1.55;;;1.45;;
13487;SDS011;6816;48.506;9.050;2023-07-13T06:36:33;4.35;;;1.77;;
13487;SDS011;6816;48.506;9.050;2023-07-13T06:39:33;3.65;;;2.00;;
13487;SDS011;6816;48.506;9.050;2023-07-13T06:42:34;1.90;;;1.80;;
13487;SDS011;6816;48.506;9.050;2023-07-13T06:45:42;2.28;;;1.55;;
13487;SDS011;6816;48.506;9.050;2023-07-13T06:48:47;5.13;;;1.80;;
13487;SDS011;6816;48.506;9.050;2023-07-13T06:51:47;2.50;;;1.83;;
13487;SDS011;6816;48.506;9.050;2023-07-13T06:54:48;3.35;;;1.70;;
13487;SDS011;6816;48.506;9.050;2023-07-13T06:57:48;2.22;;;1.60;;
13487;SDS011;6816;48.506;9.050;2023-07-13T07:00:52;3.88;;;1.50;;
13487;SDS011;6816;48.506;9.050;2023-07-13T07:03:53;1.63;;;1.52;;
13487;SDS011;6816;48.506;9.050;2023-07-13T07:06:53;2.78;;;1.50;;
13487;SDS011;6816;48.506;9.050;2023-07-13T07:09:54;1.95;;;1.30;;
13487;SDS011;6816;48.506;9.050;2023-07-13T07:12:55;2.13;;;1.23;;
13487;SDS011;6816;48.506;9.050;2023-07-13T07:15:55;3.10;;;1.35;;
13487;SDS011;6816;48.506;9.050;2023-07-13T07:18:56;2.72;;;1.48;;
13487;SDS011;6816;48.506;9.050;2023-07-13T07:21:57;1.55;;;1.40;;
13487;SDS011;6816;48.506;9.050;2023-07-13T07:24:57;1.77;;;1.30;;
13487;SDS011;6816;48.506;9.050;2023-07-13T07:27:58;3.47;;;1.33;;
13487;SDS011;6816;48.506;9.050;2023-07-13T07:30:59;1.98;;;1.50;;
13487;SDS011;6816;48.506;9.050;2023-07-13T07:33:59;1.48;;;1.30;;
13487;SDS011;6816;48.506;9.050;2023-07-13T07:37:00;2.75;;;1.40;;
13487;SDS011;6816;48.506;9.050;2023-07-13T07:40:02;2.00;;;1.40;;
13487;SDS011;6816;48.506;9.050;2023-07-13T07:43:02;2.72;;;1.63;;
13487;SDS011;6816;48.506;9.050;2023-07-13T07:46:03;2.45;;;1.27;;
13487;SDS011;6816;48.506;9.050;2023-07-13T07:49:04;2.08;;;1.00;;
13487;SDS011;6816;48.506;9.050;2023-07-13T07:52:04;2.17;;;1.95;;
13487;SDS011;6816;48.506;9.050;2023-07-13T07:55:06;1.77;;;1.40;;
13487;SDS011;6816;48.506;9.050;2023-07-13T07:58:07;3.28;;;1.25;;
13487;SDS011;6816;48.506;9.050;2023-07-13T08:01:08;2.67;;;1.70;;
13487;SDS011;6816;48.506;9.050;2023-07-13T08:04:09;2.78;;;1.55;;
13487;SDS011;6816;48.506;9.050;2023-07-13T08:07:09;1.50;;;1.20;;
13487;SDS011;6816;48.506;9.050;2023-07-13T08:10:10;2.20;;;1.10;;
13487;SDS011;6816;48.506;9.050;2023-07-13T08:13:10;1.13;;;1.00;;
13487;SDS011;6816;48.506;9.050;2023-07-13T08:16:11;1.75;;;1.00;;
13487;SDS011;6816;48.506;9.050;2023-07-13T08:19:12;1.10;;;1.00;;
13487;SDS011;6816;48.506;9.050;2023-07-13T08:22:12;2.40;;;1.13;;
13487;SDS011;6816;48.506;9.050;2023-07-13T08:25:13;1.45;;;1.10;;
13487;SDS011;6816;48.506;9.050;2023-07-13T08:28:13;1.02;;;0.80;;
13487;SDS011;6816;48.506;9.050;2023-07-13T08:31:14;3.78;;;1.10;;
13487;SDS011;6816;48.506;9.050;2023-07-13T08:34:15;1.60;;;0.95;;
13487;SDS011;6816;48.506;9.050;2023-07-13T08:37:15;1.15;;;0.80;;
13487;SDS011;6816;48.506;9.050;2023-07-13T08:40:17;2.08;;;0.90;;
13487;SDS011;6816;48.506;9.050;2023-07-13T08:43:30;1.98;;;0.90;;
13487;SDS011;6816;48.506;9.050;2023-07-13T08:46:35;2.45;;;0.95;;
13487;SDS011;6816;48.506;9.050;2023-07-13T08:49:38;1.40;;;1.05;;
13487;SDS011;6816;48.506;9.050;2023-07-13T08:52:40;2.47;;;1.10;;
13487;SDS011;6816;48.506;9.050;2023-07-13T08:55:43;1.10;;;1.00;;
13487;SDS011;6816;48.506;9.050;2023-07-13T08:58:44;2.85;;;1.20;;
13487;SDS011;6816;48.506;9.050;2023-07-13T09:02:06;2.25;;;1.08;;
13487;SDS011;6816;48.506;9.050;2023-07-13T09:14:50;1.17;;;0.90;;
13487;SDS011;6816;48.506;9.050;2023-07-13T09:17:54;1.35;;;1.17;;
13487;SDS011;6816;48.506;9.050;2023-07-13T09:21:03;2.25;;;1.00;;
13487;SDS011;6816;48.506;9.050;2023-07-13T09:27:38;1.92;;;0.82;;
13487;SDS011;6816;48.506;9.050;2023-07-13T09:33:53;2.30;;;1.13;;
13487;SDS011;6816;48.506;9.050;2023-07-13T09:36:54;1.95;;;1.00;;
13487;SDS011;6816;48.506;9.050;2023-07-13T09:39:55;1.95;;;0.80;;
13487;SDS011;6816;48.506;9.050;2023-07-13T09:42:56;1.85;;;1.10;;
13487;SDS011;6816;48.506;9.050;2023-07-13T09:45:58;2.30;;;0.90;;
13487;SDS011;6816;48.506;9.050;2023-07-13T09:48:59;1.25;;;1.10;;
13487;SDS011;6816;48.506;9.050;2023-07-13T09:52:02;1.40;;;0.82;;
13487;SDS011;6816;48.506;9.050;2023-07-13T09:55:11;1.98;;;0.90;;
13487;SDS011;6816;48.506;9.050;2023-07-13T09:58:30;1.55;;;1.00;;
13487;SDS011;6816;48.506;9.050;2023-07-13T10:01:36;1.08;;;0.82;;
13487;SDS011;6816;48.506;9.050;2023-07-13T10:04:38;1.42;;;0.93;;
13487;SDS011;6816;48.506;9.050;2023-07-13T10:07:39;1.10;;;1.00;;
13487;SDS011;6816;48.506;9.050;2023-07-13T10:10:46;2.72;;;0.98;;
13487;SDS011;6816;48.506;9.050;2023-07-13T10:13:56;2.97;;;1.08;;
13487;SDS011;6816;48.506;9.050;2023-07-13T10:17:00;2.35;;;0.90;;
13487;SDS011;6816;48.506;9.050;2023-07-13T10:20:03;1.15;;;1.00;;
13487;SDS011;6816;48.506;9.050;2023-07-13T10:23:05;1.38;;;1.10;;
13487;SDS011;6816;48.506;9.050;2023-07-13T10:26:16;1.25;;;0.90;;
13487;SDS011;6816;48.506;9.050;2023-07-13T10:29:22;1.23;;;0.95;;
13487;SDS011;6816;48.506;9.050;2023-07-13T10:32:25;1.67;;;1.00;;
13487;SDS011;6816;48.506;9.050;2023-07-13T10:35:26;1.27;;;1.17;;
13487;SDS011;6816;48.506;9.050;2023-07-13T10:38:29;1.10;;;0.85;;
13487;SDS011;6816;48.506;9.050;2023-07-13T10:41:30;1.88;;;0.82;;
13487;SDS011;6816;48.506;9.050;2023-07-13T10:44:35;1.05;;;0.90;;
13487;SDS011;6816;48.506;9.050;2023-07-13T10:47:36;1.15;;;0.80;;
13487;SDS011;6816;48.506;9.050;2023-07-13T10:50:37;1.75;;;1.00;;
13487;SDS011;6816;48.506;9.050;2023-07-13T10:53:40;1.80;;;0.80;;
13487;SDS011;6816;48.506;9.050;2023-07-13T10:56:41;1.17;;;1.08;;
13487;SDS011;6816;48.506;9.050;2023-07-13T10:59:41;2.25;;;1.08;;
13487;SDS011;6816;48.506;9.050;2023-07-13T11:02:57;1.13;;;1.00;;
13487;SDS011;6816;48.506;9.050;2023-07-13T11:09:18;1.00;;;0.80;;
13487;SDS011;6816;48.506;9.050;2023-07-13T11:15:30;1.23;;;1.00;;
13487;SDS011;6816;48.506;9.050;2023-07-13T11:25:31;1.50;;;0.82;;
13487;SDS011;6816;48.506;9.050;2023-07-13T11:28:34;0.90;;;0.80;;
13487;SDS011;6816;48.506;9.050;2023-07-13T11:31:36;1.98;;;0.90;;
13487;SDS011;6816;48.506;9.050;2023-07-13T11:34:37;1.58;;;1.00;;
13487;SDS011;6816;48.506;9.050;2023-07-13T11:37:38;1.10;;;1.00;;
13487;SDS011;6816;48.506;9.050;2023-07-13T11:40:39;1.73;;;0.88;;
13487;SDS011;6816;48.506;9.050;2023-07-13T11:43:44;1.25;;;0.70;;
13487;SDS011;6816;48.506;9.050;2023-07-13T11:46:49;1.85;;;1.00;;
13487;SDS011;6816;48.506;9.050;2023-07-13T11:49:54;0.93;;;0.85;;
13487;SDS011;6816;48.506;9.050;2023-07-13T11:52:59;0.90;;;0.82;;
13487;SDS011;6816;48.506;9.050;2023-07-13T11:56:00;1.17;;;0.80;;
13487;SDS011;6816;48.506;9.050;2023-07-13T11:59:04;1.02;;;0.73;;
13487;SDS011;6816;48.506;9.050;2023-07-13T12:02:50;1.15;;;0.93;;
13487;SDS011;6816;48.506;9.050;2023-07-13T12:05:32;1.23;;;0.77;;
13487;SDS011;6816;48.506;9.050;2023-07-13T12:08:39;1.02;;;0.80;;
13487;SDS011;6816;48.506;9.050;2023-07-13T12:11:40;0.90;;;0.70;;
13487;SDS011;6816;48.506;9.050;2023-07-13T12:14:43;1.27;;;0.80;;
13487;SDS011;6816;48.506;9.050;2023-07-13T12:17:43;1.27;;;1.00;;
13487;SDS011;6816;48.506;9.050;2023-07-13T12:20:46;2.53;;;1.10;;
13487;SDS011;6816;48.506;9.050;2023-07-13T12:23:47;2.88;;;1.00;;
13487;SDS011;6816;48.506;9.050;2023-07-13T12:29:58;0.88;;;0.82;;
13487;SDS011;6816;48.506;9.050;2023-07-13T12:33:05;1.75;;;1.05;;
13487;SDS011;6816;48.506;9.050;2023-07-13T12:36:10;1.42;;;0.95;;
13487;SDS011;6816;48.506;9.050;2023-07-13T12:39:14;1.63;;;1.00;;
13487;SDS011;6816;48.506;9.050;2023-07-13T12:42:20;1.00;;;0.70;;
13487;SDS011;6816;48.506;9.050;2023-07-13T12:45:28;2.42;;;0.88;;
13487;SDS011;6816;48.506;9.050;2023-07-13T12:48:30;2.15;;;0.80;;
13487;SDS011;6816;48.506;9.050;2023-07-13T12:51:39;1.80;;;0.82;;
13487;SDS011;6816;48.506;9.050;2023-07-13T12:54:51;1.98;;;1.00;;
13487;SDS011;6816;48.506;9.050;2023-07-13T12:57:57;0.80;;;0.80;;
13487;SDS011;6816;48.506;9.050;2023-07-13T13:00:59;2.28;;;0.93;;
13487;SDS011;6816;48.506;9.050;2023-07-13T13:04:02;0.80;;;0.80;;
13487;SDS011;6816;48.506;9.050;2023-07-13T13:07:08;1.10;;;0.77;;
13487;SDS011;6816;48.506;9.050;2023-07-13T13:10:11;1.00;;;0.70;;
13487;SDS011;6816;48.506;9.050;2023-07-13T13:13:12;1.33;;;1.05;;
13487;SDS011;6816;48.506;9.050;2023-07-13T13:16:47;1.08;;;1.02;;
13487;SDS011;6816;48.506;9.050;2023-07-13T13:19:50;1.48;;;0.80;;
13487;SDS011;6816;48.506;9.050;2023-07-13T13:22:53;2.53;;;1.02;;
13487;SDS011;6816;48.506;9.050;2023-07-13T13:25:53;4.22;;;1.20;;
13487;SDS011;6816;48.506;9.050;2023-07-13T13:28:54;1.45;;;0.85;;
13487;SDS011;6816;48.506;9.050;2023-07-13T13:31:55;0.90;;;0.80;;
13487;SDS011;6816;48.506;9.050;2023-07-13T13:34:55;2.17;;;0.90;;
13487;SDS011;6816;48.506;9.050;2023-07-13T13:37:56;1.25;;;0.80;;
13487;SDS011;6816;48.506;9.050;2023-07-13T13:40:57;1.83;;;0.80;;
13487;SDS011;6816;48.506;9.050;2023-07-13T13:43:57;0.80;;;0.80;;
13487;SDS011;6816;48.506;9.050;2023-07-13T13:46:58;0.70;;;0.70;;
13487;SDS011;6816;48.506;9.050;2023-07-13T13:49:58;0.70;;;0.70;;
13487;SDS011;6816;48.506;9.050;2023-07-13T13:53:00;0.70;;;0.70;;
13487;SDS011;6816;48.506;9.050;2023-07-13T13:56:02;1.23;;;0.93;;
13487;SDS011;6816;48.506;9.050;2023-07-13T13:59:02;0.90;;;0.90;;
13487;SDS011;6816;48.506;9.050;2023-07-13T14:02:07;1.02;;;0.90;;
13487;SDS011;6816;48.506;9.050;2023-07-13T14:05:24;0.82;;;0.80;;
13487;SDS011;6816;48.506;9.050;2023-07-13T14:08:26;0.77;;;0.63;;
13487;SDS011;6816;48.506;9.050;2023-07-13T14:11:26;1.48;;;0.82;;
13487;SDS011;6816;48.506;9.050;2023-07-13T14:14:27;2.15;;;0.90;;
13487;SDS011;6816;48.506;9.050;2023-07-13T14:17:29;1.70;;;0.90;;
13487;SDS011;6816;48.506;9.050;2023-07-13T14:20:30;1.10;;;0.90;;
13487;SDS011;6816;48.506;9.050;2023-07-13T14:23:31;1.20;;;0.90;;
13487;SDS011;6816;48.506;9.050;2023-07-13T14:26:32;1.45;;;0.80;;
13487;SDS011;6816;48.506;9.050;2023-07-13T14:29:37;0.98;;;0.80;;
13487;SDS011;6816;48.506;9.050;2023-07-13T14:32:38;1.65;;;1.00;;
13487;SDS011;6816;48.506;9.050;2023-07-13T14:35:39;1.67;;;0.85;;
13487;SDS011;6816;48.506;9.050;2023-07-13T14:38:39;1.02;;;0.80;;
13487;SDS011;6816;48.506;9.050;2023-07-13T14:41:40;0.82;;;0.80;;
13487;SDS011;6816;48.506;9.050;2023-07-13T14:44:40;0.85;;;0.80;;
13487;SDS011;6816;48.506;9.050;2023-07-13T14:47:41;2.05;;;1.08;;
13487;SDS011;6816;48.506;9.050;2023-07-13T14:50:43;1.85;;;0.93;;
13487;SDS011;6816;48.506;9.050;2023-07-13T14:53:43;2.05;;;1.05;;
13487;SDS011;6816;48.506;9.050;2023-07-13T14:56:44;0.95;;;0.82;;
13487;SDS011;6816;48.506;9.050;2023-07-13T14:59:45;1.08;;;0.90;;
13487;SDS011;6816;48.506;9.050;2023-07-13T15:02:53;2.47;;;0.90;;
13487;SDS011;6816;48.506;9.050;2023-07-13T15:05:55;0.85;;;0.80;;
13487;SDS011;6816;48.506;9.050;2023-07-13T15:09:33;1.40;;;0.98;;
13487;SDS011;6816;48.506;9.050;2023-07-13T15:12:33;1.25;;;1.08;;
13487;SDS011;6816;48.506;9.050;2023-07-13T15:15:34;1.50;;;0.80;;
13487;SDS011;6816;48.506;9.050;2023-07-13T15:18:36;3.13;;;0.90;;
13487;SDS011;6816;48.506;9.050;2023-07-13T15:21:40;1.45;;;1.00;;
13487;SDS011;6816;48.506;9.050;2023-07-13T15:24:40;1.15;;;0.80;;
13487;SDS011;6816;48.506;9.050;2023-07-13T15:27:41;2.83;;;1.30;;
13487;SDS011;6816;48.506;9.050;2023-07-13T15:30:43;1.20;;;1.10;;
13487;SDS011;6816;48.506;9.050;2023-07-13T15:33:48;1.30;;;0.88;;
13487;SDS011;6816;48.506;9.050;2023-07-13T15:36:53;1.30;;;1.05;;
13487;SDS011;6816;48.506;9.050;2023-07-13T15:39:53;1.00;;;0.80;;
13487;SDS011;6816;48.506;9.050;2023-07-13T15:42:54;1.63;;;1.08;;
13487;SDS011;6816;48.506;9.050;2023-07-13T15:45:54;1.40;;;1.10;;
13487;SDS011;6816;48.506;9.050;2023-07-13T15:48:55;1.73;;;1.08;;
13487;SDS011;6816;48.506;9.050;2023-07-13T15:51:58;1.83;;;0.80;;
13487;SDS011;6816;48.506;9.050;2023-07-13T15:54:58;1.48;;;1.10;;
13487;SDS011;6816;48.506;9.050;2023-07-13T15:58:01;1.35;;;0.90;;
13487;SDS011;6816;48.506;9.050;2023-07-13T16:01:01;1.60;;;1.00;;
13487;SDS011;6816;48.506;9.050;2023-07-13T16:04:02;1.75;;;1.00;;
13487;SDS011;6816;48.506;9.050;2023-07-13T16:07:03;1.15;;;0.80;;
13487;SDS011;6816;48.506;9.050;2023-07-13T16:10:03;1.17;;;0.95;;
13487;SDS011;6816;48.506;9.050;2023-07-13T16:13:04;3.53;;;1.23;;
13487;SDS011;6816;48.506;9.050;2023-07-13T16:16:08;1.50;;;1.35;;
13487;SDS011;6816;48.506;9.050;2023-07-13T16:19:10;4.90;;;3.85;;
13487;SDS011;6816;48.506;9.050;2023-07-13T16:22:15;4.28;;;3.67;;
13487;SDS011;6816;48.506;9.050;2023-07-13T16:25:22;5.95;;;4.45;;
13487;SDS011;6816;48.506;9.050;2023-07-13T16:28:24;3.30;;;2.97;;
13487;SDS011;6816;48.506;9.050;2023-07-13T16:31:26;1.33;;;1.20;;
13487;SDS011;6816;48.506;9.050;2023-07-13T16:34:32;2.08;;;1.20;;
13487;SDS011;6816;48.506;9.050;2023-07-13T16:37:34;3.63;;;2.08;;
13487;SDS011;6816;48.506;9.050;2023-07-13T16:40:36;1.88;;;1.40;;
13487;SDS011;6816;48.506;9.050;2023-07-13T16:43:37;1.63;;;1.15;;
13487;SDS011;6816;48.506;9.050;2023-07-13T16:46:39;1.10;;;1.00;;
13487;SDS011;6816;48.506;9.050;2023-07-13T16:49:42;4.97;;;4.57;;
13487;SDS011;6816;48.506;9.050;2023-07-13T16:52:43;2.75;;;2.55;;
13487;SDS011;6816;48.506;9.050;2023-07-13T16:55:45;2.50;;;2.30;;
13487;SDS011;6816;48.506;9.050;2023-07-13T16:58:45;3.72;;;3.35;;
13487;SDS011;6816;48.506;9.050;2023-07-13T17:01:46;2.42;;;1.60;;
13487;SDS011;6816;48.506;9.050;2023-07-13T17:04:47;27.15;;;23.00;;
13487;SDS011;6816;48.506;9.050;2023-07-13T17:07:48;37.72;;;33.05;;
13487;SDS011;6816;48.506;9.050;2023-07-13T17:10:50;47.58;;;40.47;;
13487;SDS011;6816;48.506;9.050;2023-07-13T17:13:54;13.13;;;11.82;;
13487;SDS011;6816;48.506;9.050;2023-07-13T17:16:55;7.70;;;6.20;;
13487;SDS011;6816;48.506;9.050;2023-07-13T17:19:56;4.30;;;3.45;;
13487;SDS011;6816;48.506;9.050;2023-07-13T17:22:59;2.92;;;1.90;;
13487;SDS011;6816;48.506;9.050;2023-07-13T17:25:59;1.95;;;1.52;;
13487;SDS011;6816;48.506;9.050;2023-07-13T17:29:00;3.75;;;2.97;;
13487;SDS011;6816;48.506;9.050;2023-07-13T17:32:01;22.05;;;14.73;;
13487;SDS011;6816;48.506;9.050;2023-07-13T17:35:08;13.10;;;9.50;;
13487;SDS011;6816;48.506;9.050;2023-07-13T17:38:35;6.97;;;6.28;;
13487;SDS011;6816;48.506;9.050;2023-07-13T17:41:50;3.78;;;3.40;;
13487;SDS011;6816;48.506;9.050;2023-07-13T17:44:51;3.72;;;2.40;;
13487;SDS011;6816;48.506;9.050;2023-07-13T17:47:52;2.30;;;1.50;;
13487;SDS011;6816;48.506;9.050;2023-07-13T17:50:54;1.48;;;1.10;;
13487;SDS011;6816;48.506;9.050;2023-07-13T17:53:55;1.85;;;0.80;;
13487;SDS011;6816;48.506;9.050;2023-07-13T17:56:57;1.00;;;0.88;;
13487;SDS011;6816;48.506;9.050;2023-07-13T17:59:58;1.13;;;0.85;;
13487;SDS011;6816;48.506;9.050;2023-07-13T18:03:01;1.48;;;1.00;;
13487;SDS011;6816;48.506;9.050;2023-07-13T18:06:15;1.83;;;0.85;;
13487;SDS011;6816;48.506;9.050;2023-07-13T18:09:26;1.27;;;1.02;;
13487;SDS011;6816;48.506;9.050;2023-07-13T18:12:27;0.85;;;0.80;;
13487;SDS011;6816;48.506;9.050;2023-07-13T18:15:28;1.02;;;0.88;;
13487;SDS011;6816;48.506;9.050;2023-07-13T18:18:31;1.17;;;0.77;;
13487;SDS011;6816;48.506;9.050;2023-07-13T18:21:34;2.05;;;1.10;;
13487;SDS011;6816;48.506;9.050;2023-07-13T18:24:34;1.33;;;0.80;;
13487;SDS011;6816;48.506;9.050;2023-07-13T18:27:35;1.00;;;0.90;;
13487;SDS011;6816;48.506;9.050;2023-07-13T18:30:36;2.00;;;1.10;;
13487;SDS011;6816;48.506;9.050;2023-07-13T18:33:37;1.50;;;0.90;;
13487;SDS011;6816;48.506;9.050;2023-07-13T18:36:38;0.85;;;0.85;;
13487;SDS011;6816;48.506;9.050;2023-07-13T18:39:39;1.95;;;0.95;;
13487;SDS011;6816;48.506;9.050;2023-07-13T18:42:40;1.75;;;1.13;;
13487;SDS011;6816;48.506;9.050;2023-07-13T18:45:41;1.52;;;1.05;;
13487;SDS011;6816;48.506;9.050;2023-07-13T18:48:43;1.08;;;0.98;;
13487;SDS011;6816;48.506;9.050;2023-07-13T18:51:44;3.38;;;1.00;;
13487;SDS011;6816;48.506;9.050;2023-07-13T18:54:45;1.33;;;1.08;;
13487;SDS011;6816;48.506;9.050;2023-07-13T18:57:46;1.10;;;0.90;;
13487;SDS011;6816;48.506;9.050;2023-07-13T19:00:50;2.50;;;0.80;;
13487;SDS011;6816;48.506;9.050;2023-07-13T19:03:57;2.00;;;1.10;;
13487;SDS011;6816;48.506;9.050;2023-07-13T19:06:58;3.15;;;1.23;;
13487;SDS011;6816;48.506;9.050;2023-07-13T19:09:59;1.20;;;0.90;;